sensor_id;sensor_type;location;lat;lon;timestamp;temperature;humidity
16408;DHT22;8313;49.894;8.084;2022-09-12T00:02:24;18.20;99.90
16408;DHT22;8313;49.894;8.084;2022-09-12T00:04:50;18.10;99.90
16408;DHT22;8313;49.894;8.084;2022-09-12T00:07:16;18.10;99.90
16408;DHT22;8313;49.894;8.084;2022-09-12T00:09:41;18.10;99.90
16408;DHT22;8313;49.894;8.084;2022-09-12T00:12:07;18.10;99.90
16408;DHT22;8313;49.894;8.084;2022-09-12T00:14:33;18.10;99.90
16408;DHT22;8313;49.894;8.084;2022-09-12T00:16:59;18.10;99.90
16408;DHT22;8313;49.894;8.084;2022-09-12T00:19:26;18.00;99.90
16408;DHT22;8313;49.894;8.084;2022-09-12T00:21:52;18.00;99.90
16408;DHT22;8313;49.894;8.084;2022-09-12T00:24:18;18.00;99.90
16408;DHT22;8313;49.894;8.084;2022-09-12T00:26:43;18.00;99.90
16408;DHT22;8313;49.894;8.084;2022-09-12T00:29:18;18.00;99.90
16408;DHT22;8313;49.894;8.084;2022-09-12T00:31:44;17.90;99.90
16408;DHT22;8313;49.894;8.084;2022-09-12T00:34:10;17.90;99.90
16408;DHT22;8313;49.894;8.084;2022-09-12T00:36:38;17.90;99.90
16408;DHT22;8313;49.894;8.084;2022-09-12T00:39:04;17.90;99.90
16408;DHT22;8313;49.894;8.084;2022-09-12T00:41:36;17.90;99.90
16408;DHT22;8313;49.894;8.084;2022-09-12T00:44:38;17.80;99.90
16408;DHT22;8313;49.894;8.084;2022-09-12T00:49:31;17.80;99.90
16408;DHT22;8313;49.894;8.084;2022-09-12T00:54:33;17.70;99.90
16408;DHT22;8313;49.894;8.084;2022-09-12T00:57:01;17.70;99.90
16408;DHT22;8313;49.894;8.084;2022-09-12T01:02:11;17.60;99.90
16408;DHT22;8313;49.894;8.084;2022-09-12T01:04:38;17.60;99.90
16408;DHT22;8313;49.894;8.084;2022-09-12T01:07:05;17.70;99.90
16408;DHT22;8313;49.894;8.084;2022-09-12T01:09:32;17.60;99.90
16408;DHT22;8313;49.894;8.084;2022-09-12T01:12:00;17.60;99.90
16408;DHT22;8313;49.894;8.084;2022-09-12T01:14:27;17.60;99.90
16408;DHT22;8313;49.894;8.084;2022-09-12T01:16:54;17.50;99.90
16408;DHT22;8313;49.894;8.084;2022-09-12T01:19:48;17.50;99.90
16408;DHT22;8313;49.894;8.084;2022-09-12T01:30:57;17.40;99.90
16408;DHT22;8313;49.894;8.084;2022-09-12T01:33:40;17.40;99.90
16408;DHT22;8313;49.894;8.084;2022-09-12T01:39:05;17.20;99.90
16408;DHT22;8313;49.894;8.084;2022-09-12T01:47:09;17.20;99.90
16408;DHT22;8313;49.894;8.084;2022-09-12T01:52:27;17.20;99.90
16408;DHT22;8313;49.894;8.084;2022-09-12T01:54:59;17.20;99.90
16408;DHT22;8313;49.894;8.084;2022-09-12T01:57:34;17.20;99.90
16408;DHT22;8313;49.894;8.084;2022-09-12T02:00:06;17.20;99.90
16408;DHT22;8313;49.894;8.084;2022-09-12T02:02:46;17.10;99.90
16408;DHT22;8313;49.894;8.084;2022-09-12T02:05:30;17.10;99.90
16408;DHT22;8313;49.894;8.084;2022-09-12T02:08:12;17.00;99.90
16408;DHT22;8313;49.894;8.084;2022-09-12T02:11:17;17.00;99.90
16408;DHT22;8313;49.894;8.084;2022-09-12T02:13:56;17.00;99.90
16408;DHT22;8313;49.894;8.084;2022-09-12T02:16:41;17.00;99.90
16408;DHT22;8313;49.894;8.084;2022-09-12T02:19:15;16.90;99.90
16408;DHT22;8313;49.894;8.084;2022-09-12T02:21:49;16.90;99.90
16408;DHT22;8313;49.894;8.084;2022-09-12T02:24:16;16.90;99.90
16408;DHT22;8313;49.894;8.084;2022-09-12T02:26:50;16.90;99.90
16408;DHT22;8313;49.894;8.084;2022-09-12T02:29:17;16.90;99.90
16408;DHT22;8313;49.894;8.084;2022-09-12T02:31:48;16.90;99.90
16408;DHT22;8313;49.894;8.084;2022-09-12T02:39:40;16.80;99.90
16408;DHT22;8313;49.894;8.084;2022-09-12T02:42:06;16.80;99.90
16408;DHT22;8313;49.894;8.084;2022-09-12T02:44:33;16.70;99.90
16408;DHT22;8313;49.894;8.084;2022-09-12T02:47:05;16.70;99.90
16408;DHT22;8313;49.894;8.084;2022-09-12T02:49:32;16.60;99.90
16408;DHT22;8313;49.894;8.084;2022-09-12T02:51:59;16.60;99.90
16408;DHT22;8313;49.894;8.084;2022-09-12T02:54:25;16.60;99.90
16408;DHT22;8313;49.894;8.084;2022-09-12T02:56:52;16.60;99.90
16408;DHT22;8313;49.894;8.084;2022-09-12T02:59:20;16.60;99.90
16408;DHT22;8313;49.894;8.084;2022-09-12T03:20:13;16.50;99.90
16408;DHT22;8313;49.894;8.084;2022-09-12T03:23:02;16.50;99.90
16408;DHT22;8313;49.894;8.084;2022-09-12T03:25:47;16.40;99.90
16408;DHT22;8313;49.894;8.084;2022-09-12T03:28:16;16.40;99.90
16408;DHT22;8313;49.894;8.084;2022-09-12T03:30:47;16.40;99.90
16408;DHT22;8313;49.894;8.084;2022-09-12T03:33:17;16.40;99.90
16408;DHT22;8313;49.894;8.084;2022-09-12T03:35:44;16.40;99.90
16408;DHT22;8313;49.894;8.084;2022-09-12T03:38:10;16.40;99.90
16408;DHT22;8313;49.894;8.084;2022-09-12T03:40:37;16.30;99.90
16408;DHT22;8313;49.894;8.084;2022-09-12T03:43:04;16.30;99.90
16408;DHT22;8313;49.894;8.084;2022-09-12T03:45:30;16.30;99.90
16408;DHT22;8313;49.894;8.084;2022-09-12T03:47:56;16.30;99.90
16408;DHT22;8313;49.894;8.084;2022-09-12T03:50:22;16.30;99.90
16408;DHT22;8313;49.894;8.084;2022-09-12T03:52:47;16.20;99.90
16408;DHT22;8313;49.894;8.084;2022-09-12T03:55:13;16.20;99.90
16408;DHT22;8313;49.894;8.084;2022-09-12T03:57:39;16.20;99.90
16408;DHT22;8313;49.894;8.084;2022-09-12T04:00:06;16.20;99.90
16408;DHT22;8313;49.894;8.084;2022-09-12T04:02:38;16.10;99.90
16408;DHT22;8313;49.894;8.084;2022-09-12T04:05:04;16.10;99.90
16408;DHT22;8313;49.894;8.084;2022-09-12T04:07:30;16.10;99.90
16408;DHT22;8313;49.894;8.084;2022-09-12T04:09:55;16.10;99.90
16408;DHT22;8313;49.894;8.084;2022-09-12T04:12:21;16.10;99.90
16408;DHT22;8313;49.894;8.084;2022-09-12T04:14:47;16.10;99.90
16408;DHT22;8313;49.894;8.084;2022-09-12T04:17:13;16.10;99.90
16408;DHT22;8313;49.894;8.084;2022-09-12T04:19:39;16.00;99.90
16408;DHT22;8313;49.894;8.084;2022-09-12T04:22:05;16.00;99.90
16408;DHT22;8313;49.894;8.084;2022-09-12T04:24:31;16.00;99.90
16408;DHT22;8313;49.894;8.084;2022-09-12T04:26:56;16.00;99.90
16408;DHT22;8313;49.894;8.084;2022-09-12T04:29:22;15.90;99.90
16408;DHT22;8313;49.894;8.084;2022-09-12T04:31:48;15.90;99.90
16408;DHT22;8313;49.894;8.084;2022-09-12T04:34:14;15.90;99.90
16408;DHT22;8313;49.894;8.084;2022-09-12T04:36:40;15.90;99.90
16408;DHT22;8313;49.894;8.084;2022-09-12T04:39:06;15.90;99.90
16408;DHT22;8313;49.894;8.084;2022-09-12T04:41:37;15.90;99.90
16408;DHT22;8313;49.894;8.084;2022-09-12T04:44:06;15.80;99.90
16408;DHT22;8313;49.894;8.084;2022-09-12T04:46:35;15.80;99.90
16408;DHT22;8313;49.894;8.084;2022-09-12T04:49:02;15.80;99.90
16408;DHT22;8313;49.894;8.084;2022-09-12T04:51:30;15.80;99.90
16408;DHT22;8313;49.894;8.084;2022-09-12T04:54:00;15.80;99.90
16408;DHT22;8313;49.894;8.084;2022-09-12T04:56:27;15.70;99.90
16408;DHT22;8313;49.894;8.084;2022-09-12T04:58:56;15.70;99.90
16408;DHT22;8313;49.894;8.084;2022-09-12T05:01:22;15.70;99.90
16408;DHT22;8313;49.894;8.084;2022-09-12T05:03:49;15.70;99.90
16408;DHT22;8313;49.894;8.084;2022-09-12T05:06:21;15.70;99.90
16408;DHT22;8313;49.894;8.084;2022-09-12T05:08:47;15.60;99.90
16408;DHT22;8313;49.894;8.084;2022-09-12T05:11:16;15.70;99.90
16408;DHT22;8313;49.894;8.084;2022-09-12T05:13:42;15.70;99.90
16408;DHT22;8313;49.894;8.084;2022-09-12T05:16:11;15.60;99.90
16408;DHT22;8313;49.894;8.084;2022-09-12T05:18:37;15.60;99.90
16408;DHT22;8313;49.894;8.084;2022-09-12T05:21:05;15.60;99.90
16408;DHT22;8313;49.894;8.084;2022-09-12T05:23:31;15.60;99.90
16408;DHT22;8313;49.894;8.084;2022-09-12T05:25:59;15.60;99.90
16408;DHT22;8313;49.894;8.084;2022-09-12T05:28:29;15.60;99.90
16408;DHT22;8313;49.894;8.084;2022-09-12T05:31:11;15.60;99.90
16408;DHT22;8313;49.894;8.084;2022-09-12T05:33:39;15.50;99.90
16408;DHT22;8313;49.894;8.084;2022-09-12T05:36:08;15.60;99.90
16408;DHT22;8313;49.894;8.084;2022-09-12T05:38:34;15.60;99.90
16408;DHT22;8313;49.894;8.084;2022-09-12T05:41:11;15.60;99.90
16408;DHT22;8313;49.894;8.084;2022-09-12T05:43:38;15.50;99.90
16408;DHT22;8313;49.894;8.084;2022-09-12T05:46:06;15.50;99.90
16408;DHT22;8313;49.894;8.084;2022-09-12T05:48:36;15.50;99.90
16408;DHT22;8313;49.894;8.084;2022-09-12T05:51:05;15.50;99.90
16408;DHT22;8313;49.894;8.084;2022-09-12T05:53:31;15.50;99.90
16408;DHT22;8313;49.894;8.084;2022-09-12T05:56:11;15.50;99.90
16408;DHT22;8313;49.894;8.084;2022-09-12T05:58:39;15.50;99.90
16408;DHT22;8313;49.894;8.084;2022-09-12T06:01:07;15.50;99.90
16408;DHT22;8313;49.894;8.084;2022-09-12T06:03:35;15.50;99.90
16408;DHT22;8313;49.894;8.084;2022-09-12T06:06:03;15.50;99.90
16408;DHT22;8313;49.894;8.084;2022-09-12T06:08:30;15.50;99.90
16408;DHT22;8313;49.894;8.084;2022-09-12T06:11:03;15.50;99.90
16408;DHT22;8313;49.894;8.084;2022-09-12T06:13:32;15.50;99.90
16408;DHT22;8313;49.894;8.084;2022-09-12T06:16:03;15.50;99.90
16408;DHT22;8313;49.894;8.084;2022-09-12T06:18:28;15.60;99.90
16408;DHT22;8313;49.894;8.084;2022-09-12T06:20:54;15.50;99.90
16408;DHT22;8313;49.894;8.084;2022-09-12T06:23:20;15.50;99.90
16408;DHT22;8313;49.894;8.084;2022-09-12T06:25:47;15.60;99.90
16408;DHT22;8313;49.894;8.084;2022-09-12T06:28:13;15.60;99.90
16408;DHT22;8313;49.894;8.084;2022-09-12T06:30:39;15.60;99.90
16408;DHT22;8313;49.894;8.084;2022-09-12T06:33:05;15.60;99.90
16408;DHT22;8313;49.894;8.084;2022-09-12T06:35:34;15.60;99.90
16408;DHT22;8313;49.894;8.084;2022-09-12T06:37:59;15.60;99.90
16408;DHT22;8313;49.894;8.084;2022-09-12T06:40:26;15.70;99.90
16408;DHT22;8313;49.894;8.084;2022-09-12T06:42:51;15.70;99.90
16408;DHT22;8313;49.894;8.084;2022-09-12T06:45:30;15.70;99.90
16408;DHT22;8313;49.894;8.084;2022-09-12T06:47:56;15.80;99.90
16408;DHT22;8313;49.894;8.084;2022-09-12T06:50:22;15.80;99.90
16408;DHT22;8313;49.894;8.084;2022-09-12T06:52:49;15.80;99.90
16408;DHT22;8313;49.894;8.084;2022-09-12T06:55:16;15.90;99.90
16408;DHT22;8313;49.894;8.084;2022-09-12T06:57:42;15.90;99.90
16408;DHT22;8313;49.894;8.084;2022-09-12T07:00:09;15.90;99.90
16408;DHT22;8313;49.894;8.084;2022-09-12T07:02:35;15.90;99.90
16408;DHT22;8313;49.894;8.084;2022-09-12T07:05:00;16.00;99.90
16408;DHT22;8313;49.894;8.084;2022-09-12T07:07:26;16.00;99.90
16408;DHT22;8313;49.894;8.084;2022-09-12T07:09:51;16.00;99.90
16408;DHT22;8313;49.894;8.084;2022-09-12T07:12:18;16.10;99.90
16408;DHT22;8313;49.894;8.084;2022-09-12T07:14:44;16.20;99.90
16408;DHT22;8313;49.894;8.084;2022-09-12T07:17:09;16.20;99.90
16408;DHT22;8313;49.894;8.084;2022-09-12T07:19:36;16.30;99.90
16408;DHT22;8313;49.894;8.084;2022-09-12T07:22:02;16.30;99.90
16408;DHT22;8313;49.894;8.084;2022-09-12T07:24:28;16.30;99.90
16408;DHT22;8313;49.894;8.084;2022-09-12T07:26:54;16.30;99.90
16408;DHT22;8313;49.894;8.084;2022-09-12T07:29:20;16.40;99.90
16408;DHT22;8313;49.894;8.084;2022-09-12T07:31:46;16.40;99.90
16408;DHT22;8313;49.894;8.084;2022-09-12T07:34:12;16.50;99.90
16408;DHT22;8313;49.894;8.084;2022-09-12T07:36:38;16.60;99.90
16408;DHT22;8313;49.894;8.084;2022-09-12T07:39:04;16.60;99.90
16408;DHT22;8313;49.894;8.084;2022-09-12T07:41:31;16.70;99.90
16408;DHT22;8313;49.894;8.084;2022-09-12T07:44:00;16.80;99.90
16408;DHT22;8313;49.894;8.084;2022-09-12T07:46:27;16.90;99.90
16408;DHT22;8313;49.894;8.084;2022-09-12T07:48:55;16.90;99.90
16408;DHT22;8313;49.894;8.084;2022-09-12T07:51:22;17.00;99.90
16408;DHT22;8313;49.894;8.084;2022-09-12T07:53:48;17.00;99.90
16408;DHT22;8313;49.894;8.084;2022-09-12T07:56:15;17.10;99.90
16408;DHT22;8313;49.894;8.084;2022-09-12T07:58:41;17.10;99.90
16408;DHT22;8313;49.894;8.084;2022-09-12T08:03:42;17.20;99.90
16408;DHT22;8313;49.894;8.084;2022-09-12T08:06:12;17.30;99.90
16408;DHT22;8313;49.894;8.084;2022-09-12T08:08:39;17.40;99.90
16408;DHT22;8313;49.894;8.084;2022-09-12T08:11:07;17.50;99.90
16408;DHT22;8313;49.894;8.084;2022-09-12T08:13:34;17.50;99.90
16408;DHT22;8313;49.894;8.084;2022-09-12T08:16:03;17.60;99.90
16408;DHT22;8313;49.894;8.084;2022-09-12T08:18:30;17.70;99.90
16408;DHT22;8313;49.894;8.084;2022-09-12T08:21:05;17.80;99.90
16408;DHT22;8313;49.894;8.084;2022-09-12T08:23:31;17.90;99.90
16408;DHT22;8313;49.894;8.084;2022-09-12T08:25:58;18.00;99.90
16408;DHT22;8313;49.894;8.084;2022-09-12T08:28:26;18.00;99.90
16408;DHT22;8313;49.894;8.084;2022-09-12T08:30:52;18.10;99.90
16408;DHT22;8313;49.894;8.084;2022-09-12T08:33:19;18.20;99.90
16408;DHT22;8313;49.894;8.084;2022-09-12T08:35:45;18.20;99.90
16408;DHT22;8313;49.894;8.084;2022-09-12T08:38:11;18.30;99.90
16408;DHT22;8313;49.894;8.084;2022-09-12T08:40:54;18.30;99.90
16408;DHT22;8313;49.894;8.084;2022-09-12T08:43:57;18.40;99.90
16408;DHT22;8313;49.894;8.084;2022-09-12T08:46:48;18.50;99.90
16408;DHT22;8313;49.894;8.084;2022-09-12T08:52:14;18.60;99.90
16408;DHT22;8313;49.894;8.084;2022-09-12T08:54:43;18.70;99.90
16408;DHT22;8313;49.894;8.084;2022-09-12T08:57:10;18.80;99.90
16408;DHT22;8313;49.894;8.084;2022-09-12T08:59:38;18.80;99.90
16408;DHT22;8313;49.894;8.084;2022-09-12T09:16:41;19.50;99.90
16408;DHT22;8313;49.894;8.084;2022-09-12T09:19:27;19.40;99.90
16408;DHT22;8313;49.894;8.084;2022-09-12T09:22:16;19.40;99.90
16408;DHT22;8313;49.894;8.084;2022-09-12T09:24:48;19.60;99.90
16408;DHT22;8313;49.894;8.084;2022-09-12T09:29:53;19.80;99.90
16408;DHT22;8313;49.894;8.084;2022-09-12T09:32:28;19.90;99.90
16408;DHT22;8313;49.894;8.084;2022-09-12T09:34:56;19.90;99.90
16408;DHT22;8313;49.894;8.084;2022-09-12T09:40:16;19.80;99.90
16408;DHT22;8313;49.894;8.084;2022-09-12T09:45:23;20.00;99.90
16408;DHT22;8313;49.894;8.084;2022-09-12T09:50:22;20.20;99.90
16408;DHT22;8313;49.894;8.084;2022-09-12T09:52:50;20.30;99.90
16408;DHT22;8313;49.894;8.084;2022-09-12T09:55:22;20.50;99.90
16408;DHT22;8313;49.894;8.084;2022-09-12T09:57:49;20.60;99.90
16408;DHT22;8313;49.894;8.084;2022-09-12T10:00:36;20.80;99.90
16408;DHT22;8313;49.894;8.084;2022-09-12T10:05:52;21.00;99.90
16408;DHT22;8313;49.894;8.084;2022-09-12T10:08:28;21.40;99.90
16408;DHT22;8313;49.894;8.084;2022-09-12T10:11:08;21.50;99.90
16408;DHT22;8313;49.894;8.084;2022-09-12T10:13:51;21.50;99.90
16408;DHT22;8313;49.894;8.084;2022-09-12T10:16:21;21.60;99.90
16408;DHT22;8313;49.894;8.084;2022-09-12T10:18:48;21.60;99.90
16408;DHT22;8313;49.894;8.084;2022-09-12T10:21:31;21.70;99.90
16408;DHT22;8313;49.894;8.084;2022-09-12T10:29:34;21.80;99.90
16408;DHT22;8313;49.894;8.084;2022-09-12T10:32:06;21.80;99.90
16408;DHT22;8313;49.894;8.084;2022-09-12T10:34:40;21.90;99.90
16408;DHT22;8313;49.894;8.084;2022-09-12T10:37:09;22.20;99.90
16408;DHT22;8313;49.894;8.084;2022-09-12T10:39:40;22.30;99.90
16408;DHT22;8313;49.894;8.084;2022-09-12T10:42:06;22.50;99.90
16408;DHT22;8313;49.894;8.084;2022-09-12T10:44:33;22.50;99.90
16408;DHT22;8313;49.894;8.084;2022-09-12T10:47:17;22.60;99.90
16408;DHT22;8313;49.894;8.084;2022-09-12T10:49:43;22.80;99.90
16408;DHT22;8313;49.894;8.084;2022-09-12T10:52:19;22.90;99.90
16408;DHT22;8313;49.894;8.084;2022-09-12T10:54:46;22.90;99.90
16408;DHT22;8313;49.894;8.084;2022-09-12T11:00:08;22.90;99.90
16408;DHT22;8313;49.894;8.084;2022-09-12T11:10:48;23.20;99.90
16408;DHT22;8313;49.894;8.084;2022-09-12T11:13:56;23.20;99.90
16408;DHT22;8313;49.894;8.084;2022-09-12T11:16:51;23.20;99.90
16408;DHT22;8313;49.894;8.084;2022-09-12T11:21:56;23.40;99.90
16408;DHT22;8313;49.894;8.084;2022-09-12T11:24:42;23.50;99.90
16408;DHT22;8313;49.894;8.084;2022-09-12T11:27:23;23.60;99.90
16408;DHT22;8313;49.894;8.084;2022-09-12T11:30:02;23.60;99.90
16408;DHT22;8313;49.894;8.084;2022-09-12T11:35:47;23.90;99.90
16408;DHT22;8313;49.894;8.084;2022-09-12T11:41:04;24.00;99.90
16408;DHT22;8313;49.894;8.084;2022-09-12T11:43:39;23.90;99.90
16408;DHT22;8313;49.894;8.084;2022-09-12T12:00:05;24.40;99.90
16408;DHT22;8313;49.894;8.084;2022-09-12T12:06:01;24.70;99.90
16408;DHT22;8313;49.894;8.084;2022-09-12T12:08:30;24.80;99.90
16408;DHT22;8313;49.894;8.084;2022-09-12T12:11:00;25.10;99.90
16408;DHT22;8313;49.894;8.084;2022-09-12T12:14:00;25.20;99.90
16408;DHT22;8313;49.894;8.084;2022-09-12T12:16:28;25.20;99.90
16408;DHT22;8313;49.894;8.084;2022-09-12T12:18:58;25.20;99.90
16408;DHT22;8313;49.894;8.084;2022-09-12T12:21:44;25.20;99.90
16408;DHT22;8313;49.894;8.084;2022-09-12T12:24:34;25.30;99.90
16408;DHT22;8313;49.894;8.084;2022-09-12T12:38:02;25.30;99.50
16408;DHT22;8313;49.894;8.084;2022-09-12T12:40:29;25.30;98.70
16408;DHT22;8313;49.894;8.084;2022-09-12T12:42:56;25.40;99.00
16408;DHT22;8313;49.894;8.084;2022-09-12T12:50:32;25.70;99.50
16408;DHT22;8313;49.894;8.084;2022-09-12T12:53:13;25.80;98.40
16408;DHT22;8313;49.894;8.084;2022-09-12T12:58:36;25.80;97.20
16408;DHT22;8313;49.894;8.084;2022-09-12T13:01:20;25.80;97.20
16408;DHT22;8313;49.894;8.084;2022-09-12T13:04:02;25.80;96.80
16408;DHT22;8313;49.894;8.084;2022-09-12T13:06:41;26.00;96.80
16408;DHT22;8313;49.894;8.084;2022-09-12T13:09:08;26.10;97.00
16408;DHT22;8313;49.894;8.084;2022-09-12T13:11:42;26.20;96.90
16408;DHT22;8313;49.894;8.084;2022-09-12T13:16:59;26.40;97.10
16408;DHT22;8313;49.894;8.084;2022-09-12T13:19:29;26.30;97.10
16408;DHT22;8313;49.894;8.084;2022-09-12T13:22:04;26.10;96.10
16408;DHT22;8313;49.894;8.084;2022-09-12T13:24:30;26.00;95.40
16408;DHT22;8313;49.894;8.084;2022-09-12T13:26:56;26.00;95.60
16408;DHT22;8313;49.894;8.084;2022-09-12T13:29:26;26.10;96.00
16408;DHT22;8313;49.894;8.084;2022-09-12T13:32:02;26.40;95.50
16408;DHT22;8313;49.894;8.084;2022-09-12T13:34:33;26.50;95.60
16408;DHT22;8313;49.894;8.084;2022-09-12T13:37:45;26.50;94.90
16408;DHT22;8313;49.894;8.084;2022-09-12T13:40:26;26.40;95.40
16408;DHT22;8313;49.894;8.084;2022-09-12T13:43:18;26.50;94.40
16408;DHT22;8313;49.894;8.084;2022-09-12T13:45:47;26.30;93.90
16408;DHT22;8313;49.894;8.084;2022-09-12T13:48:20;26.50;94.50
16408;DHT22;8313;49.894;8.084;2022-09-12T13:51:22;26.50;94.50
16408;DHT22;8313;49.894;8.084;2022-09-12T13:53:49;26.30;93.40
16408;DHT22;8313;49.894;8.084;2022-09-12T13:56:18;26.10;93.30
16408;DHT22;8313;49.894;8.084;2022-09-12T13:58:54;26.00;92.20
16408;DHT22;8313;49.894;8.084;2022-09-12T14:01:23;26.00;94.10
16408;DHT22;8313;49.894;8.084;2022-09-12T14:03:55;26.10;92.60
16408;DHT22;8313;49.894;8.084;2022-09-12T14:06:48;26.10;93.30
16408;DHT22;8313;49.894;8.084;2022-09-12T14:09:20;26.30;93.50
16408;DHT22;8313;49.894;8.084;2022-09-12T14:11:47;26.30;92.70
16408;DHT22;8313;49.894;8.084;2022-09-12T14:14:42;26.40;93.30
16408;DHT22;8313;49.894;8.084;2022-09-12T14:17:23;26.60;92.20
16408;DHT22;8313;49.894;8.084;2022-09-12T14:19:53;26.70;92.30
16408;DHT22;8313;49.894;8.084;2022-09-12T14:22:24;26.60;92.40
16408;DHT22;8313;49.894;8.084;2022-09-12T14:24:54;26.70;91.70
16408;DHT22;8313;49.894;8.084;2022-09-12T14:27:28;26.50;91.00
16408;DHT22;8313;49.894;8.084;2022-09-12T14:30:06;26.60;91.20
16408;DHT22;8313;49.894;8.084;2022-09-12T14:32:33;26.80;91.20
16408;DHT22;8313;49.894;8.084;2022-09-12T14:35:17;26.90;90.00
16408;DHT22;8313;49.894;8.084;2022-09-12T14:37:47;26.90;90.30
16408;DHT22;8313;49.894;8.084;2022-09-12T14:40:23;26.80;89.70
16408;DHT22;8313;49.894;8.084;2022-09-12T14:42:50;26.70;90.00
16408;DHT22;8313;49.894;8.084;2022-09-12T14:45:29;26.70;90.20
16408;DHT22;8313;49.894;8.084;2022-09-12T14:47:56;26.90;89.50
16408;DHT22;8313;49.894;8.084;2022-09-12T14:50:25;26.90;87.70
16408;DHT22;8313;49.894;8.084;2022-09-12T14:53:03;26.80;89.00
16408;DHT22;8313;49.894;8.084;2022-09-12T14:55:31;26.70;89.80
16408;DHT22;8313;49.894;8.084;2022-09-12T14:58:26;26.70;88.40
16408;DHT22;8313;49.894;8.084;2022-09-12T15:03:28;26.70;90.70
16408;DHT22;8313;49.894;8.084;2022-09-12T15:05:54;26.60;90.00
16408;DHT22;8313;49.894;8.084;2022-09-12T15:08:20;26.50;88.80
16408;DHT22;8313;49.894;8.084;2022-09-12T15:10:46;26.50;88.10
16408;DHT22;8313;49.894;8.084;2022-09-12T15:13:17;26.40;89.00
16408;DHT22;8313;49.894;8.084;2022-09-12T15:15:49;26.50;88.00
16408;DHT22;8313;49.894;8.084;2022-09-12T15:18:16;26.50;86.40
16408;DHT22;8313;49.894;8.084;2022-09-12T15:20:43;26.50;89.10
16408;DHT22;8313;49.894;8.084;2022-09-12T15:23:15;26.50;87.90
16408;DHT22;8313;49.894;8.084;2022-09-12T15:25:42;26.70;87.60
16408;DHT22;8313;49.894;8.084;2022-09-12T15:28:16;26.70;88.50
16408;DHT22;8313;49.894;8.084;2022-09-12T15:30:42;26.70;89.50
16408;DHT22;8313;49.894;8.084;2022-09-12T15:33:09;26.70;87.90
16408;DHT22;8313;49.894;8.084;2022-09-12T15:35:35;26.50;86.00
16408;DHT22;8313;49.894;8.084;2022-09-12T15:38:01;26.60;86.90
16408;DHT22;8313;49.894;8.084;2022-09-12T15:40:27;26.70;86.40
16408;DHT22;8313;49.894;8.084;2022-09-12T15:42:53;26.70;87.70
16408;DHT22;8313;49.894;8.084;2022-09-12T15:45:21;26.60;87.70
16408;DHT22;8313;49.894;8.084;2022-09-12T15:47:48;26.50;86.80
16408;DHT22;8313;49.894;8.084;2022-09-12T15:50:14;26.50;85.80
16408;DHT22;8313;49.894;8.084;2022-09-12T15:52:40;26.50;86.70
16408;DHT22;8313;49.894;8.084;2022-09-12T15:55:31;26.50;85.90
16408;DHT22;8313;49.894;8.084;2022-09-12T15:57:57;26.50;85.80
16408;DHT22;8313;49.894;8.084;2022-09-12T16:00:23;26.50;85.40
16408;DHT22;8313;49.894;8.084;2022-09-12T16:02:51;26.30;83.40
16408;DHT22;8313;49.894;8.084;2022-09-12T16:05:23;26.30;84.70
16408;DHT22;8313;49.894;8.084;2022-09-12T16:07:53;26.30;86.10
16408;DHT22;8313;49.894;8.084;2022-09-12T16:10:28;26.30;85.70
16408;DHT22;8313;49.894;8.084;2022-09-12T16:12:54;26.30;84.60
16408;DHT22;8313;49.894;8.084;2022-09-12T16:15:22;26.30;84.70
16408;DHT22;8313;49.894;8.084;2022-09-12T16:17:49;26.30;83.80
16408;DHT22;8313;49.894;8.084;2022-09-12T16:20:15;26.40;84.80
16408;DHT22;8313;49.894;8.084;2022-09-12T16:22:41;26.30;82.90
16408;DHT22;8313;49.894;8.084;2022-09-12T16:25:08;26.20;84.70
16408;DHT22;8313;49.894;8.084;2022-09-12T16:27:35;26.20;83.90
16408;DHT22;8313;49.894;8.084;2022-09-12T16:30:01;26.20;83.20
16408;DHT22;8313;49.894;8.084;2022-09-12T16:32:26;26.10;82.70
16408;DHT22;8313;49.894;8.084;2022-09-12T16:34:52;26.00;83.30
16408;DHT22;8313;49.894;8.084;2022-09-12T16:37:18;26.00;84.50
16408;DHT22;8313;49.894;8.084;2022-09-12T16:39:43;26.00;85.20
16408;DHT22;8313;49.894;8.084;2022-09-12T16:42:09;25.90;82.80
16408;DHT22;8313;49.894;8.084;2022-09-12T16:44:35;25.90;83.30
16408;DHT22;8313;49.894;8.084;2022-09-12T16:47:00;25.90;83.70
16408;DHT22;8313;49.894;8.084;2022-09-12T16:49:26;25.80;84.10
16408;DHT22;8313;49.894;8.084;2022-09-12T16:51:52;25.80;84.10
16408;DHT22;8313;49.894;8.084;2022-09-12T16:54:17;25.80;85.10
16408;DHT22;8313;49.894;8.084;2022-09-12T16:56:43;25.80;85.50
16408;DHT22;8313;49.894;8.084;2022-09-12T16:59:09;25.70;85.50
16408;DHT22;8313;49.894;8.084;2022-09-12T17:01:38;25.70;85.20
16408;DHT22;8313;49.894;8.084;2022-09-12T17:04:04;25.70;85.50
16408;DHT22;8313;49.894;8.084;2022-09-12T17:06:31;25.60;85.50
16408;DHT22;8313;49.894;8.084;2022-09-12T17:09:00;25.60;85.40
16408;DHT22;8313;49.894;8.084;2022-09-12T17:11:28;25.50;85.80
16408;DHT22;8313;49.894;8.084;2022-09-12T17:13:56;25.50;85.80
16408;DHT22;8313;49.894;8.084;2022-09-12T17:16:22;25.40;85.60
16408;DHT22;8313;49.894;8.084;2022-09-12T17:18:49;25.40;86.20
16408;DHT22;8313;49.894;8.084;2022-09-12T17:21:15;25.30;86.90
16408;DHT22;8313;49.894;8.084;2022-09-12T17:23:41;25.30;87.70
16408;DHT22;8313;49.894;8.084;2022-09-12T17:26:08;25.30;88.30
16408;DHT22;8313;49.894;8.084;2022-09-12T17:28:35;25.20;88.80
16408;DHT22;8313;49.894;8.084;2022-09-12T17:31:03;25.20;89.40
16408;DHT22;8313;49.894;8.084;2022-09-12T17:33:29;25.10;89.80
16408;DHT22;8313;49.894;8.084;2022-09-12T17:36:00;25.00;89.80
16408;DHT22;8313;49.894;8.084;2022-09-12T17:38:25;24.90;90.00
16408;DHT22;8313;49.894;8.084;2022-09-12T17:40:52;24.80;90.00
16408;DHT22;8313;49.894;8.084;2022-09-12T17:43:17;24.70;90.30
16408;DHT22;8313;49.894;8.084;2022-09-12T17:45:43;24.60;90.40
16408;DHT22;8313;49.894;8.084;2022-09-12T17:48:09;24.60;90.90
16408;DHT22;8313;49.894;8.084;2022-09-12T17:50:37;24.60;90.50
16408;DHT22;8313;49.894;8.084;2022-09-12T17:53:03;24.50;90.70
16408;DHT22;8313;49.894;8.084;2022-09-12T17:55:34;24.40;90.70
16408;DHT22;8313;49.894;8.084;2022-09-12T17:58:00;24.30;90.70
16408;DHT22;8313;49.894;8.084;2022-09-12T18:00:27;24.30;91.00
16408;DHT22;8313;49.894;8.084;2022-09-12T18:03:12;24.20;91.00
16408;DHT22;8313;49.894;8.084;2022-09-12T18:05:45;24.10;91.20
16408;DHT22;8313;49.894;8.084;2022-09-12T18:08:12;24.00;91.30
16408;DHT22;8313;49.894;8.084;2022-09-12T18:10:38;24.00;91.40
16408;DHT22;8313;49.894;8.084;2022-09-12T18:13:03;23.90;91.30
16408;DHT22;8313;49.894;8.084;2022-09-12T18:15:31;23.80;91.30
16408;DHT22;8313;49.894;8.084;2022-09-12T18:17:59;23.60;91.20
16408;DHT22;8313;49.894;8.084;2022-09-12T18:20:25;23.40;91.60
16408;DHT22;8313;49.894;8.084;2022-09-12T18:22:51;23.40;91.90
16408;DHT22;8313;49.894;8.084;2022-09-12T18:25:16;23.30;91.80
16408;DHT22;8313;49.894;8.084;2022-09-12T18:27:42;23.40;92.00
16408;DHT22;8313;49.894;8.084;2022-09-12T18:30:08;23.30;91.90
16408;DHT22;8313;49.894;8.084;2022-09-12T18:32:34;23.30;92.00
16408;DHT22;8313;49.894;8.084;2022-09-12T18:35:00;23.30;92.00
16408;DHT22;8313;49.894;8.084;2022-09-12T18:37:25;23.30;92.00